createdAt,value
2018-09-30T00:01:25.221Z,95479.43
2018-09-30T00:03:50.689Z,95474.09
2018-09-30T00:06:16.183Z,95476.47
2018-09-30T00:08:41.684Z,95477.25
2018-09-30T00:11:07.164Z,95480.17
2018-09-30T00:13:32.639Z,95486.85
2018-09-30T00:15:58.129Z,95483.55
2018-09-30T00:18:23.601Z,95486.06
2018-09-30T00:20:49.070Z,95487.44
2018-09-30T00:23:14.562Z,95486.63
2018-09-30T00:25:40.034Z,95490.34
2018-09-30T00:28:05.531Z,95487.59
2018-09-30T00:30:31.027Z,95490.34
2018-09-30T00:32:56.499Z,95489.37
2018-09-30T00:35:22.003Z,95491.30
2018-09-30T00:37:47.471Z,95487.19
2018-09-30T00:40:12.936Z,95488.16
2018-09-30T00:42:38.410Z,95497.60
2018-09-30T00:45:03.911Z,95490.19
2018-09-30T00:47:29.402Z,95499.79
2018-09-30T00:49:54.890Z,95503.72
2018-09-30T00:52:20.366Z,95501.72
2018-09-30T00:54:45.834Z,95504.05
2018-09-30T00:57:11.317Z,95503.50
2018-09-30T00:59:36.784Z,95509.54
2018-09-30T01:02:02.255Z,95516.80
2018-09-30T01:04:27.725Z,95517.55
2018-09-30T01:06:53.230Z,95511.47
2018-09-30T01:09:18.731Z,95524.78
2018-09-30T01:11:44.226Z,95523.41
2018-09-30T01:14:09.692Z,95519.30
2018-09-30T01:16:35.166Z,95520.29
2018-09-30T01:19:00.632Z,95522.62
2018-09-30T01:21:26.129Z,95516.95
2018-09-30T01:23:51.601Z,95514.80
2018-09-30T01:26:17.083Z,95519.48
2018-09-30T01:28:42.628Z,95510.69
2018-09-30T01:31:08.129Z,95517.70
2018-09-30T01:33:33.599Z,95524.97
2018-09-30T01:35:59.068Z,95520.84
2018-09-30T01:38:24.565Z,95523.19
2018-09-30T01:40:50.036Z,95521.00
2018-09-30T01:43:15.535Z,95518.03
2018-09-30T01:45:41.136Z,95522.15
2018-09-30T01:48:06.634Z,95524.56
2018-09-30T01:50:32.104Z,95524.97
2018-09-30T01:52:57.599Z,95521.97
2018-09-30T01:55:23.090Z,95525.93
2018-09-30T01:57:48.557Z,95523.34
2018-09-30T02:00:14.033Z,95528.41
2018-09-30T02:02:39.540Z,95526.89
2018-09-30T02:05:05.032Z,95526.08
2018-09-30T02:07:30.528Z,95532.94
2018-09-30T02:09:56.018Z,95537.23
2018-09-30T02:12:21.519Z,95532.16
2018-09-30T02:14:46.999Z,95535.45
2018-09-30T02:17:12.482Z,95523.67
2018-09-30T02:19:37.984Z,95525.05
2018-09-30T02:22:03.490Z,95526.41
2018-09-30T02:24:28.952Z,95531.50
2018-09-30T02:26:54.465Z,95531.09
2018-09-30T02:29:19.960Z,95526.59
2018-09-30T02:31:45.450Z,95530.30
2018-09-30T02:34:10.926Z,95527.37
2018-09-30T02:36:36.400Z,95527.97
2018-09-30T02:39:01.869Z,95524.23
2018-09-30T02:41:27.338Z,95530.12
2018-09-30T02:43:52.809Z,95532.64
2018-09-30T02:46:18.304Z,95531.27
2018-09-30T02:48:43.777Z,95536.20
2018-09-30T02:51:09.272Z,95540.47
2018-09-30T02:53:34.763Z,95542.87
2018-09-30T02:56:00.252Z,95542.06
2018-09-30T02:58:25.745Z,95539.91
2018-09-30T03:00:51.239Z,95540.88
2018-09-30T03:03:16.727Z,95544.36
2018-09-30T03:05:42.221Z,95548.29
2018-09-30T03:08:07.696Z,95550.06
2018-09-30T03:10:33.210Z,95553.77
2018-09-30T03:12:58.708Z,95555.55
2018-09-30T03:15:24.178Z,95554.33
2018-09-30T03:17:49.691Z,95556.11
2018-09-30T03:20:15.183Z,95564.34
2018-09-30T03:22:40.682Z,95560.41
2018-09-30T03:25:06.148Z,95557.48
2018-09-30T03:27:31.639Z,95554.33
2018-09-30T03:29:57.110Z,95561.38
2018-09-30T03:32:22.602Z,95558.86
2018-09-30T03:34:48.076Z,95559.59
2018-09-30T03:37:13.570Z,95559.59
2018-09-30T03:39:39.201Z,95566.86
2018-09-30T03:42:04.564Z,95575.09
2018-09-30T03:44:30.027Z,95569.60
2018-09-30T03:46:55.541Z,95568.23
2018-09-30T03:49:21.038Z,95570.97
2018-09-30T03:51:46.535Z,95567.42
2018-09-30T03:54:12.027Z,95577.02
2018-09-30T03:56:37.626Z,95578.39
2018-09-30T03:59:02.970Z,95573.31
2018-09-30T04:01:28.444Z,95576.05
2018-09-30T04:03:53.941Z,95580.58
2018-09-30T04:06:19.487Z,95573.87
2018-09-30T04:08:44.974Z,95579.77
2018-09-30T04:11:10.471Z,95574.83
2018-09-30T04:13:35.940Z,95580.58
2018-09-30T04:16:01.404Z,95580.58
2018-09-30T04:18:26.949Z,95584.91
2018-09-30T04:20:52.446Z,95585.32
2018-09-30T04:23:17.914Z,95585.73
2018-09-30T04:25:43.410Z,95590.66
2018-09-30T04:28:08.886Z,95590.33
2018-09-30T04:30:34.360Z,95592.52
2018-09-30T04:32:59.828Z,95597.19
2018-09-30T04:35:25.292Z,95592.66
2018-09-30T04:37:50.790Z,95599.37
2018-09-30T04:40:16.289Z,95602.11
2018-09-30T04:42:41.819Z,95609.75
2018-09-30T04:45:07.288Z,95614.53
2018-09-30T04:47:32.802Z,95615.50
2018-09-30T04:49:58.371Z,95612.19
2018-09-30T04:52:23.795Z,95612.75
2018-09-30T04:54:49.299Z,95611.67
2018-09-30T04:57:14.800Z,95565.52
2018-09-30T04:59:40.285Z,95563.81
2018-09-30T05:02:05.777Z,95606.34
2018-09-30T05:04:31.327Z,95605.15
2018-09-30T05:06:56.769Z,95604.34
2018-09-30T05:09:22.261Z,95601.74
2018-09-30T05:11:47.763Z,95604.11
2018-09-30T05:14:13.253Z,95604.03
2018-09-30T05:16:38.725Z,95605.23
2018-09-30T05:19:04.198Z,95609.52
2018-09-30T05:21:29.703Z,95609.34
2018-09-30T05:23:55.200Z,95617.02
2018-09-30T05:26:20.695Z,95614.34
2018-09-30T05:28:46.165Z,95620.05
2018-09-30T05:31:11.699Z,95623.39
2018-09-30T05:33:37.163Z,95627.66
2018-09-30T05:36:02.643Z,95629.18
2018-09-30T05:38:28.138Z,95625.47
2018-09-30T05:40:53.643Z,95624.35
2018-09-30T05:43:19.137Z,95632.17
2018-09-30T05:45:44.647Z,95630.55
2018-09-30T05:48:10.119Z,95633.30
2018-09-30T05:50:35.585Z,95630.17
2018-09-30T05:53:01.064Z,95628.80
2018-09-30T05:55:26.529Z,95636.63
2018-09-30T05:57:52.054Z,95636.22
2018-09-30T06:00:17.520Z,95637.03
2018-09-30T06:02:42.989Z,95634.29
2018-09-30T06:05:08.461Z,95633.88
2018-09-30T06:07:33.952Z,95637.59
2018-09-30T06:09:59.457Z,95639.19
2018-09-30T06:12:24.925Z,95644.27
2018-09-30T06:14:50.397Z,95643.89
2018-09-30T06:17:15.867Z,95652.91
2018-09-30T06:19:41.367Z,95646.86
2018-09-30T06:22:06.837Z,95643.71
2018-09-30T06:24:32.320Z,95644.12
2018-09-30T06:26:57.819Z,95651.61
2018-09-30T06:29:23.296Z,95655.31
2018-09-30T06:31:48.980Z,95656.20
2018-09-30T06:34:14.449Z,95665.41
2018-09-30T06:36:40.117Z,95665.33
2018-09-30T06:39:05.594Z,95663.06
2018-09-30T06:41:31.149Z,95669.78
2018-09-30T06:43:56.645Z,95669.19
2018-09-30T06:46:22.143Z,95672.67
2018-09-30T06:48:47.622Z,95670.66
2018-09-30T06:51:13.098Z,95671.48
2018-09-30T06:53:38.569Z,95674.78
2018-09-30T06:56:04.063Z,95666.55
2018-09-30T06:58:29.635Z,95670.11
2018-09-30T07:00:55.211Z,95676.63
2018-09-30T07:03:20.691Z,95678.97
2018-09-30T07:05:46.184Z,95677.94
2018-09-30T07:08:11.666Z,95678.48
2018-09-30T07:10:37.192Z,95672.85
2018-09-30T07:13:02.640Z,95674.67
2018-09-30T07:15:28.120Z,95668.62
2018-09-30T07:17:53.623Z,95675.56
2018-09-30T07:20:19.127Z,95675.16
2018-09-30T07:22:44.650Z,95675.16
2018-09-30T07:25:10.075Z,95677.90
2018-09-30T07:27:35.582Z,95685.91
2018-09-30T07:30:01.075Z,95683.49
2018-09-30T07:32:26.556Z,95686.05
2018-09-30T07:34:52.029Z,95692.28
2018-09-30T07:37:17.514Z,95693.14
2018-09-30T07:39:43.029Z,95692.84
2018-09-30T07:42:08.527Z,95693.95
2018-09-30T07:44:34.021Z,95695.59
2018-09-30T07:46:59.490Z,95697.26
2018-09-30T07:49:24.959Z,95697.59
2018-09-30T07:51:50.470Z,95697.52
2018-09-30T07:54:15.944Z,95696.06
2018-09-30T07:56:41.484Z,95695.48
2018-09-30T07:59:06.956Z,95699.59
2018-09-30T08:01:32.432Z,95707.45
2018-09-30T08:03:57.912Z,95698.73
2018-09-30T08:06:23.563Z,95701.30
2018-09-30T08:08:49.097Z,95701.70
2018-09-30T08:11:14.584Z,95700.59
2018-09-30T08:13:40.084Z,95700.89
2018-09-30T08:16:05.558Z,95701.08
2018-09-30T08:18:31.050Z,95692.58
2018-09-30T08:20:56.529Z,95691.62
2018-09-30T08:23:22.008Z,95693.25
2018-09-30T08:25:47.499Z,95691.70
2018-09-30T08:28:12.969Z,95700.00
2018-09-30T08:30:38.524Z,95694.03
2018-09-30T08:33:03.981Z,95689.69
2018-09-30T08:35:29.477Z,95691.06
2018-09-30T08:37:54.984Z,95695.73
2018-09-30T08:40:20.454Z,95694.55
2018-09-30T08:42:45.958Z,95688.80
2018-09-30T08:45:11.431Z,95686.47
2018-09-30T08:47:36.997Z,95685.27
2018-09-30T08:50:02.433Z,95685.09
2018-09-30T08:52:27.906Z,95685.27
2018-09-30T08:54:56.130Z,95683.09
2018-09-30T08:57:22.365Z,95679.53
2018-09-30T08:59:47.847Z,95674.86
2018-09-30T09:02:13.363Z,95679.94
2018-09-30T09:04:38.871Z,95681.08
2018-09-30T09:07:05.921Z,95679.30
2018-09-30T09:09:31.493Z,95683.42
2018-09-30T09:11:56.992Z,95673.81
2018-09-30T09:14:22.462Z,95673.97
2018-09-30T09:16:47.941Z,95669.44
2018-09-30T09:19:13.425Z,95672.78
2018-09-30T09:21:38.940Z,95670.19
2018-09-30T09:24:04.418Z,95657.98
2018-09-30T09:26:29.902Z,95661.47
2018-09-30T09:28:55.560Z,95657.42
2018-09-30T09:31:21.032Z,95658.39
2018-09-30T09:33:46.541Z,95654.28
2018-09-30T09:36:12.042Z,95661.55
2018-09-30T09:38:37.542Z,95656.06
2018-09-30T09:41:03.021Z,95668.25
2018-09-30T09:43:28.488Z,95660.02
2018-09-30T09:45:54.019Z,95660.17
2018-09-30T09:48:19.510Z,95658.17
2018-09-30T09:50:44.979Z,95655.83
2018-09-30T09:53:11.607Z,95649.94
2018-09-30T09:55:37.074Z,95651.87
2018-09-30T09:58:02.552Z,95651.31
2018-09-30T10:00:28.084Z,95650.09
2018-09-30T10:02:53.581Z,95650.09
2018-09-30T10:05:19.091Z,95657.77
2018-09-30T10:07:44.592Z,95650.09
2018-09-30T10:10:10.095Z,95653.80
2018-09-30T10:12:35.574Z,95653.23
2018-09-30T10:15:01.053Z,95651.46
2018-09-30T10:17:26.545Z,95642.82
2018-09-30T10:19:52.081Z,95651.64
2018-09-30T10:22:17.496Z,95647.53
2018-09-30T10:24:42.990Z,95645.75
2018-09-30T10:27:08.482Z,95646.56
2018-09-30T10:29:33.987Z,95648.90
2018-09-30T10:31:59.487Z,95649.30
2018-09-30T10:34:24.978Z,95645.34
2018-09-30T10:36:50.458Z,95643.41
2018-09-30T10:39:16.116Z,95648.48
2018-09-30T10:41:41.422Z,95641.37
2018-09-30T10:44:06.921Z,95637.03
2018-09-30T10:46:32.391Z,95639.63
2018-09-30T10:48:57.895Z,95635.25
2018-09-30T10:51:23.441Z,95634.84
2018-09-30T10:53:48.940Z,95633.07
2018-09-30T10:56:14.432Z,95625.73
2018-09-30T10:58:39.939Z,95621.28
2018-09-30T11:01:05.422Z,95622.09
2018-09-30T11:03:30.971Z,95624.69
2018-09-30T11:05:56.401Z,95622.32
2018-09-30T11:08:21.871Z,95619.66
2018-09-30T11:10:47.371Z,95615.72
2018-09-30T11:13:12.867Z,95617.72
2018-09-30T11:15:38.336Z,95613.20
2018-09-30T11:18:03.869Z,95607.56
2018-09-30T11:20:29.488Z,95607.97
2018-09-30T11:22:54.982Z,95601.81
2018-09-30T11:25:20.475Z,95600.70
2018-09-30T11:27:45.958Z,95602.48
2018-09-30T11:30:11.454Z,95601.11
2018-09-30T11:32:36.922Z,95598.36
2018-09-30T11:35:02.419Z,95594.66
2018-09-30T11:37:27.912Z,95598.18
2018-09-30T11:39:53.418Z,95595.84
2018-09-30T11:42:18.885Z,95595.28
2018-09-30T11:44:44.389Z,95597.14
2018-09-30T11:47:09.910Z,95596.33
2018-09-30T11:49:35.386Z,95591.84
2018-09-30T11:52:00.862Z,95591.02
2018-09-30T11:54:26.345Z,95594.73
2018-09-30T11:56:51.842Z,95591.17
2018-09-30T11:59:17.326Z,95592.80
2018-09-30T12:01:42.824Z,95594.40
2018-09-30T12:04:08.319Z,95590.98
2018-09-30T12:06:33.816Z,95589.94
2018-09-30T12:08:59.292Z,95584.12
2018-09-30T12:11:24.792Z,95585.01
2018-09-30T12:13:50.343Z,95584.19
2018-09-30T12:16:15.837Z,95580.82
2018-09-30T12:18:43.650Z,95577.11
2018-09-30T12:21:09.051Z,95576.03
2018-09-30T12:23:34.554Z,95573.55
2018-09-30T12:26:00.057Z,95572.17
2018-09-30T12:28:25.558Z,95572.09
2018-09-30T12:30:51.096Z,95567.98
2018-09-30T12:33:16.583Z,95565.95
2018-09-30T12:35:42.053Z,95556.13
2018-09-30T12:38:07.558Z,95550.63
2018-09-30T12:40:33.044Z,95553.78
2018-09-30T12:42:58.516Z,95552.97
2018-09-30T12:45:24.017Z,95543.84
2018-09-30T12:47:49.625Z,95542.88
2018-09-30T12:50:15.111Z,95540.62
2018-09-30T12:52:40.645Z,95540.55
2018-09-30T12:55:06.143Z,95539.33
2018-09-30T12:57:31.637Z,95534.39
2018-09-30T12:59:57.309Z,95532.47
2018-09-30T13:02:22.798Z,95532.53
2018-09-30T13:04:48.295Z,95540.44
2018-09-30T13:07:13.771Z,95535.14
2018-09-30T13:09:39.622Z,95537.06
2018-09-30T13:12:05.135Z,95534.88
2018-09-30T13:14:30.606Z,95535.29
2018-09-30T13:16:56.076Z,95525.46
2018-09-30T13:19:21.584Z,95533.44
2018-09-30T13:21:47.062Z,95524.09
2018-09-30T13:24:12.577Z,95522.31
2018-09-30T13:26:38.048Z,95517.79
2018-09-30T13:29:03.550Z,95513.67
2018-09-30T13:31:29.050Z,95517.05
2018-09-30T13:33:54.556Z,95517.70
2018-09-30T13:36:20.363Z,95514.16
2018-09-30T13:38:45.859Z,95518.11
2018-09-30T13:41:11.498Z,95516.48
2018-09-30T13:43:36.850Z,95516.48
2018-09-30T13:46:02.707Z,95513.92
2018-09-30T13:48:28.155Z,95511.19
2018-09-30T13:50:53.710Z,95508.03
2018-09-30T13:53:19.161Z,95510.38
2018-09-30T13:55:44.747Z,95512.30
2018-09-30T13:58:10.378Z,95514.48
2018-09-30T14:00:35.851Z,95511.00
2018-09-30T14:03:01.348Z,95513.92
2018-09-30T14:05:27.137Z,95510.19
2018-09-30T14:07:52.610Z,95510.52
2018-09-30T14:10:18.106Z,95511.11
2018-09-30T14:12:43.583Z,95510.52
2018-09-30T14:15:09.077Z,95509.74
2018-09-30T14:17:34.557Z,95512.08
2018-09-30T14:20:00.224Z,95511.67
2018-09-30T14:22:25.726Z,95515.79
2018-09-30T14:24:51.196Z,95513.20
2018-09-30T14:27:16.809Z,95517.56
2018-09-30T14:29:42.180Z,95516.02
2018-09-30T14:32:07.674Z,95518.20
2018-09-30T14:34:33.391Z,95515.86
2018-09-30T14:36:58.889Z,95513.67
2018-09-30T14:39:24.423Z,95508.92
2018-09-30T14:41:49.917Z,95514.42
2018-09-30T14:44:15.438Z,95506.19
2018-09-30T14:46:40.932Z,95516.34
2018-09-30T14:49:06.558Z,95512.64
2018-09-30T14:51:32.100Z,95516.34
2018-09-30T14:53:57.637Z,95517.56
2018-09-30T14:56:23.112Z,95521.70
2018-09-30T14:58:48.619Z,95518.42
2018-09-30T15:01:14.090Z,95518.25
2018-09-30T15:03:39.626Z,95525.61
2018-09-30T15:06:05.164Z,95526.77
2018-09-30T15:08:30.791Z,95524.11
2018-09-30T15:10:56.278Z,95519.52
2018-09-30T15:13:21.779Z,95515.25
2018-09-30T15:15:47.274Z,95518.39
2018-09-30T15:18:12.755Z,95520.88
2018-09-30T15:20:38.261Z,95515.73
2018-09-30T15:23:03.748Z,95515.58
2018-09-30T15:25:29.222Z,95519.44
2018-09-30T15:27:54.714Z,95517.29
2018-09-30T15:30:20.862Z,95515.92
2018-09-30T15:32:46.370Z,95516.48
2018-09-30T15:35:11.861Z,95507.28
2018-09-30T15:37:37.371Z,95514.14
2018-09-30T15:40:02.843Z,95510.17
2018-09-30T15:42:28.319Z,95500.98
2018-09-30T15:44:53.794Z,95506.13
2018-09-30T15:47:19.293Z,95505.39
2018-09-30T15:49:44.781Z,95505.86
2018-09-30T15:52:10.281Z,95518.62
2018-09-30T15:54:35.777Z,95514.02
2018-09-30T15:57:01.290Z,95513.05
2018-09-30T15:59:26.789Z,95510.70
2018-09-30T16:01:52.272Z,95515.53
2018-09-30T16:04:17.752Z,95517.72
2018-09-30T16:06:43.225Z,95513.76
2018-09-30T16:09:08.703Z,95509.08
2018-09-30T16:11:34.187Z,95514.76
2018-09-30T16:13:59.749Z,95506.89
2018-09-30T16:16:25.247Z,95507.89
2018-09-30T16:18:50.746Z,95499.59
2018-09-30T16:21:16.252Z,95505.23
2018-09-30T16:23:41.738Z,95505.98
2018-09-30T16:26:07.241Z,95509.13
2018-09-30T16:28:32.724Z,95502.83
2018-09-30T16:30:58.853Z,95503.38
2018-09-30T16:33:37.778Z,95506.53
2018-09-30T16:36:06.511Z,95507.09
2018-09-30T16:38:31.976Z,95509.05
2018-09-30T16:40:57.545Z,95514.29
2018-09-30T16:43:23.177Z,95509.05
2018-09-30T16:45:48.674Z,95513.17
2018-09-30T16:48:14.331Z,95521.71
2018-09-30T16:50:40.116Z,95512.92
2018-09-30T16:53:05.877Z,95508.25
2018-09-30T16:55:31.546Z,95515.17
2018-09-30T16:57:57.135Z,95517.36
2018-09-30T17:00:22.631Z,95513.95
2018-09-30T17:02:48.143Z,95512.25
2018-09-30T17:05:13.684Z,95515.47
2018-09-30T17:07:39.216Z,95513.69
2018-09-30T17:10:04.739Z,95516.12
2018-09-30T17:12:30.349Z,95513.76
2018-09-30T17:14:55.826Z,95517.50
2018-09-30T17:17:21.341Z,95524.09
2018-09-30T17:19:46.837Z,95517.26
2018-09-30T17:22:12.539Z,95516.02
2018-09-30T17:24:38.359Z,95521.98
2018-09-30T17:27:03.854Z,95516.97
2018-09-30T17:29:29.438Z,95521.56
2018-09-30T17:31:54.949Z,95521.63
2018-09-30T17:34:20.441Z,95520.53
2018-09-30T17:36:45.915Z,95525.61
2018-09-30T17:39:11.391Z,95523.82
2018-09-30T17:41:36.881Z,95522.67
2018-09-30T17:44:02.488Z,95526.86
2018-09-30T17:46:27.915Z,95523.55
2018-09-30T17:48:53.376Z,95521.77
2018-09-30T17:51:18.955Z,95522.98
2018-09-30T17:53:44.353Z,95522.66
2018-09-30T17:56:09.839Z,95527.06
2018-09-30T17:58:35.371Z,95523.20
2018-09-30T18:01:01.258Z,95526.16
2018-09-30T18:03:27.384Z,95521.48
2018-09-30T18:05:52.868Z,95523.11
2018-09-30T18:08:18.534Z,95523.52
2018-09-30T18:10:44.031Z,95527.37
2018-09-30T18:13:09.871Z,95522.45
2018-09-30T18:15:35.410Z,95528.28
2018-09-30T18:18:00.943Z,95526.02
2018-09-30T18:20:26.403Z,95523.06
2018-09-30T18:22:51.910Z,95528.08
2018-09-30T18:25:17.416Z,95525.08
2018-09-30T18:27:43.306Z,95532.91
2018-09-30T18:30:08.800Z,95527.20
2018-09-30T18:32:34.669Z,95527.69
2018-09-30T18:35:00.890Z,95531.98
2018-09-30T18:37:26.390Z,95527.80
2018-09-30T18:39:51.937Z,95523.56
2018-09-30T18:42:17.700Z,95526.24
2018-09-30T18:44:43.199Z,95526.31
2018-09-30T18:47:08.916Z,95523.55
2018-09-30T18:49:34.527Z,95519.85
2018-09-30T18:52:00.029Z,95512.52
2018-09-30T18:54:25.589Z,95522.13
2018-09-30T18:56:51.084Z,95508.99
2018-09-30T18:59:26.876Z,95508.52
2018-09-30T19:01:52.373Z,95507.70
2018-09-30T19:04:17.852Z,95507.14
2018-09-30T19:06:43.356Z,95505.70
2018-09-30T19:09:09.036Z,95503.52
2018-09-30T19:11:35.869Z,95504.48
2018-09-30T19:14:01.517Z,95506.41
2018-09-30T19:16:27.085Z,95502.30
2018-09-30T19:18:52.571Z,95495.21
2018-09-30T19:21:18.043Z,95498.70
2018-09-30T19:23:43.548Z,95495.95
2018-09-30T19:26:09.053Z,95498.92
2018-09-30T19:28:34.930Z,95486.91
2018-09-30T19:31:00.432Z,95485.94
2018-09-30T19:33:25.900Z,95491.99
2018-09-30T19:35:51.408Z,95489.09
2018-09-30T19:38:16.949Z,95489.44
2018-09-30T19:40:42.472Z,95488.44
2018-09-30T19:43:08.254Z,95487.88
2018-09-30T19:45:33.751Z,95473.75
2018-09-30T19:47:59.234Z,95473.94
2018-09-30T19:50:24.726Z,95471.97
2018-09-30T19:52:50.270Z,95467.47
2018-09-30T19:55:15.762Z,95465.11
2018-09-30T19:57:41.249Z,95466.10
2018-09-30T20:00:06.747Z,95467.22
2018-09-30T20:02:32.242Z,95464.33
2018-09-30T20:04:57.714Z,95458.84
2018-09-30T20:07:23.204Z,95458.17
2018-09-30T20:09:48.744Z,95455.43
2018-09-30T20:12:14.238Z,95459.14
2018-09-30T20:14:39.738Z,95452.47
2018-09-30T20:17:05.211Z,95453.28
2018-09-30T20:19:30.742Z,95453.84
2018-09-30T20:21:56.208Z,95444.86
2018-09-30T20:24:21.686Z,95444.80
2018-09-30T20:26:47.162Z,95448.91
2018-09-30T20:29:12.637Z,95445.35
2018-09-30T20:31:38.132Z,95446.16
2018-09-30T20:34:03.599Z,95440.27
2018-09-30T20:36:29.089Z,95441.48
2018-09-30T20:38:54.584Z,95434.84
2018-09-30T20:41:20.121Z,95426.46
2018-09-30T20:43:45.619Z,95427.58
2018-09-30T20:46:11.119Z,95420.16
2018-09-30T20:48:36.724Z,95424.84
2018-09-30T20:51:02.405Z,95425.83
2018-09-30T20:53:27.911Z,95423.39
2018-09-30T20:55:53.423Z,95421.58
2018-09-30T20:58:18.860Z,95416.66
2018-09-30T21:00:44.366Z,95420.92
2018-09-30T21:03:09.863Z,95418.52
2018-09-30T21:05:35.343Z,95414.59
2018-09-30T21:08:00.831Z,95415.30
2018-09-30T21:10:26.423Z,95412.16
2018-09-30T21:12:51.834Z,95410.00
2018-09-30T21:15:17.329Z,95413.30
2018-09-30T21:17:42.827Z,95403.29
2018-09-30T21:20:08.306Z,95405.23
2018-09-30T21:22:33.785Z,95397.98
2018-09-30T21:24:59.285Z,95394.03
2018-09-30T21:27:24.840Z,95389.09
2018-09-30T21:29:50.332Z,95392.99
2018-09-30T21:32:15.881Z,95390.66
2018-09-30T21:34:41.348Z,95387.51
2018-09-30T21:37:06.848Z,95386.14
2018-09-30T21:39:32.328Z,95381.77
2018-09-30T21:41:57.836Z,95380.17
2018-09-30T21:44:23.338Z,95374.69
2018-09-30T21:46:48.831Z,95370.01
2018-09-30T21:49:14.328Z,95363.86
2018-09-30T21:51:39.811Z,95360.16
2018-09-30T21:54:05.298Z,95361.71
2018-09-30T21:56:30.794Z,95360.50
2018-09-30T21:58:56.286Z,95356.94
2018-09-30T22:01:21.849Z,95355.97
2018-09-30T22:03:47.258Z,95353.23
2018-09-30T22:06:12.768Z,95350.89
2018-09-30T22:08:38.251Z,95349.92
2018-09-30T22:11:03.791Z,95350.89
2018-09-30T22:13:29.290Z,95349.11
2018-09-30T22:15:54.786Z,95343.81
2018-09-30T22:18:20.269Z,95340.81
2018-09-30T22:20:45.772Z,95332.99
2018-09-30T22:23:11.260Z,95336.89
2018-09-30T22:25:36.752Z,95332.59
2018-09-30T22:28:02.241Z,95329.84
2018-09-30T22:30:27.739Z,95324.54
2018-09-30T22:32:53.219Z,95327.28
2018-09-30T22:35:18.687Z,95319.61
2018-09-30T22:37:44.151Z,95319.36
2018-09-30T22:40:09.656Z,95325.84
2018-09-30T22:42:35.100Z,95324.07
2018-09-30T22:45:00.594Z,95320.92
2018-09-30T22:47:26.095Z,95320.92
2018-09-30T22:49:51.587Z,95316.96
2018-09-30T22:52:17.055Z,95319.14
2018-09-30T22:54:42.591Z,95320.52
2018-09-30T22:57:08.081Z,95316.41
2018-09-30T22:59:33.553Z,95314.22
2018-09-30T23:01:59.024Z,95312.06
2018-09-30T23:04:24.541Z,95314.22
2018-09-30T23:06:50.017Z,95306.73
2018-09-30T23:09:15.520Z,95303.98
2018-09-30T23:11:41.030Z,95308.91
2018-09-30T23:14:06.525Z,95304.55
2018-09-30T23:16:32.019Z,95300.63
2018-09-30T23:18:57.511Z,95303.77
2018-09-30T23:21:23.002Z,95296.91
2018-09-30T23:23:48.474Z,95293.77
2018-09-30T23:26:13.972Z,95292.39
2018-09-30T23:28:39.462Z,95291.02
2018-09-30T23:31:04.939Z,95288.28
2018-09-30T23:33:30.435Z,95284.31
2018-09-30T23:35:55.934Z,95283.50
2018-09-30T23:38:21.405Z,95280.77
2018-09-30T23:40:46.905Z,95279.02
2018-09-30T23:43:12.397Z,95278.61
2018-09-30T23:45:37.877Z,95282.38
2018-09-30T23:48:03.374Z,95282.72
2018-09-30T23:50:28.869Z,95271.75
2018-09-30T23:52:54.365Z,95270.38
2018-09-30T23:55:19.873Z,95272.16
2018-09-30T23:57:45.380Z,95269.78
